Time;durP1;ratioP1;P1;durP2;ratioP2;P2;SDS_P1;SDS_P2;PMS_P1;PMS_P2;Temp;Humidity;BMP_temperature;BMP_pressure;BME280_temperature;BME280_humidity;BME280_pressure;Samples;Min_cycle;Max_cycle;Signal;HPM_P1;HPM_P2
2021/03/01 00:00:13;;;;;;;75.82;31.92;;;;;;;2.68;100.00;103573.81;4996293;28;20426;-76
2021/03/01 00:02:39;;;;;;;65.85;32.42;;;;;;;2.68;100.00;103574.72;4951019;28;20215;-76
2021/03/01 00:05:06;;;;;;;72.75;32.97;;;;;;;2.69;100.00;103580.69;4952447;28;20428;-76
2021/03/01 00:07:31;;;;;;;73.53;31.93;;;;;;;2.66;100.00;103580.38;4978750;28;20151;-76
2021/03/01 00:09:57;;;;;;;60.17;31.35;;;;;;;2.65;100.00;103571.88;4987687;28;20346;-77
2021/03/01 00:12:22;;;;;;;70.47;31.58;;;;;;;2.64;100.00;103575.16;4980085;28;20021;-77
2021/03/01 00:14:48;;;;;;;64.80;31.63;;;;;;;2.62;99.92;103578.28;4965191;28;20206;-76
2021/03/01 00:17:13;;;;;;;68.25;32.45;;;;;;;2.62;99.74;103575.75;4978634;28;20515;-77
2021/03/01 00:19:39;;;;;;;64.63;33.47;;;;;;;2.58;100.00;103586.31;4977237;28;20420;-78
2021/03/01 00:22:04;;;;;;;63.00;30.13;;;;;;;2.54;100.00;103585.13;4989431;28;20352;-77
2021/03/01 00:24:30;;;;;;;69.82;33.08;;;;;;;2.56;100.00;103590.34;4977548;28;20350;-77
2021/03/01 00:26:55;;;;;;;67.47;31.70;;;;;;;2.57;100.00;103579.44;4987740;28;20334;-77
2021/03/01 00:29:21;;;;;;;59.25;30.35;;;;;;;2.53;100.00;103585.84;4962036;28;20328;-77
2021/03/01 00:31:46;;;;;;;58.50;29.83;;;;;;;2.48;100.00;103587.94;4974461;28;20322;-77
2021/03/01 00:34:11;;;;;;;57.90;29.85;;;;;;;2.43;100.00;103584.03;4965580;28;20316;-76
2021/03/01 00:36:37;;;;;;;63.60;30.75;;;;;;;2.36;100.00;103591.78;4970545;28;20460;-78
2021/03/01 00:39:03;;;;;;;62.97;29.08;;;;;;;2.40;100.00;103582.84;4986347;28;20407;-77
2021/03/01 00:41:29;;;;;;;57.70;29.30;;;;;;;2.35;99.91;103582.38;4998329;28;20142;-77
2021/03/01 00:43:54;;;;;;;53.95;27.45;;;;;;;2.30;99.75;103585.22;4965295;28;20312;-77
2021/03/01 00:46:20;;;;;;;63.55;29.63;;;;;;;2.27;99.92;103584.88;4968526;28;20180;-78
2021/03/01 00:48:45;;;;;;;59.90;29.67;;;;;;;2.24;100.00;103590.53;4959330;28;20299;-77
2021/03/01 00:51:11;;;;;;;61.55;29.58;;;;;;;2.21;100.00;103585.16;4986367;28;20283;-78
2021/03/01 00:53:36;;;;;;;61.75;29.80;;;;;;;2.18;100.00;103580.69;5008816;28;20501;-77
2021/03/01 00:56:02;;;;;;;68.75;31.85;;;;;;;2.23;99.81;103587.84;4978462;28;20428;-77
2021/03/01 00:58:27;;;;;;;79.05;33.88;;;;;;;2.30;100.00;103586.13;4976067;28;20407;-75
2021/03/01 01:00:53;;;;;;;82.68;35.78;;;;;;;2.34;100.00;103588.22;4992901;28;20306;-75
2021/03/01 01:03:19;;;;;;;107.38;37.83;;;;;;;2.36;100.00;103589.25;4978795;28;20222;-76
2021/03/01 01:05:46;;;;;;;112.27;38.27;;;;;;;2.41;100.00;103585.53;4998966;28;20025;-77
2021/03/01 01:08:11;;;;;;;;;;;;;;;2.42;100.00;103587.31;4986396;28;20026;-78
2021/03/01 01:10:37;;;;;;;118.23;35.43;;;;;;;2.42;100.00;103584.78;4989269;28;20182;-78
2021/03/01 01:13:04;;;;;;;99.82;35.83;;;;;;;2.48;100.00;103584.50;4994307;28;20346;-77
2021/03/01 01:15:30;;;;;;;122.50;35.53;;;;;;;2.47;100.00;103583.59;4980407;28;20036;-77
2021/03/01 01:17:55;;;;;;;109.35;37.47;;;;;;;2.47;100.00;103588.69;4987644;28;20028;-77
2021/03/01 01:20:21;;;;;;;144.25;35.78;;;;;;;2.49;100.00;103579.59;4988214;28;20229;-76
2021/03/01 01:22:47;;;;;;;120.78;36.67;;;;;;;2.48;100.00;103581.97;5004992;28;20298;-77
2021/03/01 01:25:15;;;;;;;102.07;34.55;;;;;;;2.57;100.00;103585.41;5000456;28;20036;-78
2021/03/01 01:27:40;;;;;;;100.77;32.60;;;;;;;2.56;100.00;103585.25;5007729;28;20131;-77
2021/03/01 01:30:08;;;;;;;101.65;33.47;;;;;;;2.50;100.00;103581.38;4997456;28;20180;-77
2021/03/01 01:32:36;;;;;;;154.47;36.10;;;;;;;2.48;100.00;103585.41;4991638;28;20028;-77
2021/03/01 01:35:06;;;;;;;159.67;35.60;;;;;;;2.50;100.00;103581.38;4993245;28;20109;-77
2021/03/01 01:37:31;;;;;;;125.27;34.57;;;;;;;2.50;100.00;103572.88;4997021;28;20031;-77
2021/03/01 01:39:57;;;;;;;112.93;33.75;;;;;;;2.55;100.00;103568.25;4988532;28;20512;-76
2021/03/01 01:42:22;;;;;;;94.72;33.70;;;;;;;2.56;100.00;103576.00;4980999;28;20279;-78
2021/03/01 01:44:48;;;;;;;72.90;31.45;;;;;;;2.58;100.00;103563.47;4980248;28;20275;-77
2021/03/01 01:47:13;;;;;;;71.10;28.48;;;;;;;2.57;100.00;103559.13;5002483;28;20339;-76
2021/03/01 01:49:39;;;;;;;67.70;30.02;;;;;;;2.46;99.91;103558.09;4990589;28;20257;-77
2021/03/01 01:52:04;;;;;;;76.60;30.77;;;;;;;2.53;100.00;103559.59;5005181;28;20333;-77
2021/03/01 01:54:30;;;;;;;69.57;29.67;;;;;;;2.59;100.00;103547.50;4982499;28;20433;-77
2021/03/01 01:56:55;;;;;;;72.80;31.58;;;;;;;2.53;100.00;103549.44;4981795;28;20060;-77
2021/03/01 01:59:21;;;;;;;79.72;30.98;;;;;;;2.54;99.87;103546.16;4995425;28;20051;-76
2021/03/01 02:01:49;;;;;;;89.10;31.67;;;;;;;2.53;99.86;103545.25;5003816;28;20123;-78
2021/03/01 02:04:26;;;;;;;144.73;33.60;;;;;;;2.53;100.00;103551.97;4997994;28;20576;-77
2021/03/01 02:07:27;;;;;;;87.13;32.03;;;;;;;2.58;100.00;103544.06;5000718;28;20022;-76
2021/03/01 02:09:55;;;;;;;121.23;33.50;;;;;;;2.49;100.00;103549.13;4974553;28;20033;-76
2021/03/01 02:12:41;;;;;;;95.30;35.40;;;;;;;2.52;100.00;103555.25;4980095;28;20033;-75
2021/03/01 02:15:12;;;;;;;94.00;34.80;;;;;;;2.52;100.00;103550.19;4997117;28;20032;-78
2021/03/01 02:17:38;;;;;;;129.90;34.17;;;;;;;2.58;100.00;103550.78;4997732;28;20048;-77
2021/03/01 02:20:08;;;;;;;96.72;33.08;;;;;;;2.69;100.00;103553.66;4989226;28;20330;-77
2021/03/01 02:22:34;;;;;;;120.13;35.10;;;;;;;2.65;100.00;103543.06;4970566;28;20037;-78
2021/03/01 02:25:09;;;;;;;150.50;33.55;;;;;;;2.63;100.00;103542.91;4988359;28;20039;-78
2021/03/01 02:27:43;;;;;;;120.33;34.07;;;;;;;2.66;100.00;103545.75;4983534;28;20032;-76
2021/03/01 02:30:16;;;;;;;99.03;33.53;;;;;;;2.69;100.00;103542.63;4968814;28;20561;-78
2021/03/01 02:32:44;;;;;;;129.60;36.80;;;;;;;2.67;100.00;103546.66;4986495;28;20037;-76
2021/03/01 02:35:13;;;;;;;154.33;40.03;;;;;;;2.66;100.00;103538.13;4998444;28;20072;-78
2021/03/01 02:37:40;;;;;;;163.30;41.90;;;;;;;2.67;100.00;103539.03;5012149;28;20139;-77
2021/03/01 02:40:08;;;;;;;153.77;44.50;;;;;;;2.71;100.00;103531.88;5017199;28;20181;-77
2021/03/01 02:42:39;;;;;;;128.43;40.33;;;;;;;2.73;100.00;103535.44;4973441;28;20048;-77
2021/03/01 02:45:06;;;;;;;141.30;42.00;;;;;;;2.73;100.00;103532.91;4968034;28;20033;-77
2021/03/01 02:47:33;;;;;;;162.43;41.73;;;;;;;2.76;100.00;103524.69;4998980;28;20025;-77
2021/03/01 02:50:00;;;;;;;123.20;40.30;;;;;;;2.81;100.00;103529.47;4978699;28;20051;-78
2021/03/01 02:52:27;;;;;;;114.10;38.60;;;;;;;2.83;100.00;103529.63;4971509;28;20161;-77
2021/03/01 02:54:55;;;;;;;130.00;41.07;;;;;;;2.79;100.00;103530.06;4973276;28;20033;-77
2021/03/01 02:57:23;;;;;;;118.87;39.60;;;;;;;2.83;100.00;103533.81;4990876;28;20059;-77
2021/03/01 02:59:50;;;;;;;126.43;41.77;;;;;;;2.81;100.00;103533.66;5005388;28;20131;-77
2021/03/01 03:02:17;;;;;;;116.33;37.67;;;;;;;2.80;100.00;103540.38;4967133;28;20099;-75
2021/03/01 03:04:46;;;;;;;121.43;41.20;;;;;;;2.80;100.00;103537.84;5012323;28;20633;-76
2021/03/01 03:07:12;;;;;;;112.70;39.37;;;;;;;2.81;100.00;103533.66;4976947;28;20061;-75
2021/03/01 03:09:38;;;;;;;128.05;42.28;;;;;;;2.79;100.00;103536.03;5003444;28;20255;-76
2021/03/01 03:12:05;;;;;;;114.53;39.13;;;;;;;2.83;100.00;103524.53;4985886;28;20115;-77
2021/03/01 03:14:34;;;;;;;113.73;39.37;;;;;;;2.85;100.00;103529.78;4968994;28;20029;-78
2021/03/01 03:17:02;;;;;;;103.60;38.00;;;;;;;2.91;100.00;103525.28;4987805;28;20124;-78
2021/03/01 03:19:27;;;;;;;115.57;38.53;;;;;;;2.89;100.00;103530.22;4980191;28;20812;-77
2021/03/01 03:21:53;;;;;;;110.18;39.40;;;;;;;2.89;100.00;103532.75;4961086;28;20021;-77
2021/03/01 03:24:18;;;;;;;100.40;37.17;;;;;;;2.93;100.00;103534.88;5009211;28;20041;-77
2021/03/01 03:26:44;;;;;;;109.97;38.50;;;;;;;2.93;100.00;103528.91;4994376;28;20395;-77
2021/03/01 03:29:09;;;;;;;108.85;37.28;;;;;;;2.92;100.00;103525.44;4994407;28;20331;-77
2021/03/01 03:31:35;;;;;;;100.18;37.80;;;;;;;2.95;100.00;103528.28;4985252;28;20318;-76
2021/03/01 03:34:01;;;;;;;93.88;35.65;;;;;;;2.98;100.00;103528.59;4954163;28;20335;-77
2021/03/01 03:36:33;;;;;;;101.50;36.75;;;;;;;3.00;100.00;103528.75;4974996;28;20032;-75
2021/03/01 03:39:07;;;;;;;104.57;36.57;;;;;;;3.03;100.00;103527.38;4986225;28;20551;-77
2021/03/01 03:41:34;;;;;;;91.87;36.00;;;;;;;3.01;100.00;103533.06;4980826;28;20033;-77
2021/03/01 03:44:01;;;;;;;91.97;34.93;;;;;;;3.03;100.00;103527.38;4974864;28;20151;-76
2021/03/01 03:46:29;;;;;;;84.60;33.77;;;;;;;3.07;100.00;103533.66;4986228;28;20474;-78
2021/03/01 03:48:56;;;;;;;81.77;31.20;;;;;;;3.04;100.00;103529.19;4965763;28;20021;-77
2021/03/01 03:51:26;;;;;;;83.50;33.17;;;;;;;3.05;99.58;103525.91;4980368;28;20037;-78
2021/03/01 03:54:08;;;;;;;78.17;31.70;;;;;;;3.05;99.82;103525.00;4966533;28;20550;-77
2021/03/01 03:56:37;;;;;;;67.70;29.77;;;;;;;3.04;99.18;103528.28;5002528;28;20058;-76
2021/03/01 03:59:08;;;;;;;72.30;29.43;;;;;;;3.01;99.09;103526.34;4996615;28;20013;-75
2021/03/01 04:01:35;;;;;;;74.10;30.67;;;;;;;3.05;99.00;103527.53;4994007;28;20020;-78
2021/03/01 04:04:06;;;;;;;72.88;28.42;;;;;;;3.01;98.89;103528.88;4967270;28;20021;-76
2021/03/01 04:06:35;;;;;;;68.53;28.57;;;;;;;2.98;98.60;103528.59;4959954;28;20047;-76
2021/03/01 04:09:05;;;;;;;77.77;29.60;;;;;;;3.02;98.95;103534.84;4998565;28;20032;-77
2021/03/01 04:11:31;;;;;;;65.37;27.93;;;;;;;3.04;98.76;103536.81;4955650;28;20566;-77
2021/03/01 04:13:57;;;;;;;71.13;27.65;;;;;;;3.04;98.67;103536.81;4987750;28;20056;-76
2021/03/01 04:16:23;;;;;;;56.20;26.73;;;;;;;3.04;98.57;103529.19;4984753;28;20368;-76
2021/03/01 04:18:53;;;;;;;59.80;25.13;;;;;;;2.97;98.17;103533.53;4974879;28;20032;-76
2021/03/01 04:21:20;;;;;;;61.20;26.27;;;;;;;2.95;98.21;103528.28;4990361;28;20028;-76
2021/03/01 04:23:48;;;;;;;65.47;26.70;;;;;;;2.95;98.39;103529.94;4992034;28;20128;-77
2021/03/01 04:26:14;;;;;;;65.00;25.07;;;;;;;2.99;98.35;103525.31;5010712;28;20028;-76
2021/03/01 04:28:41;;;;;;;66.03;27.10;;;;;;;2.94;98.37;103526.50;4989383;28;20039;-76
2021/03/01 04:31:09;;;;;;;64.80;27.27;;;;;;;2.92;98.17;103522.88;4972764;28;20107;-77
2021/03/01 04:33:36;;;;;;;60.80;25.40;;;;;;;2.92;97.42;103522.88;4990777;28;20031;-77
2021/03/01 04:36:04;;;;;;;64.20;27.17;;;;;;;2.95;97.92;103528.28;4957838;28;20022;-77
2021/03/01 04:38:30;;;;;;;70.40;27.97;;;;;;;2.93;97.98;103524.72;4976091;28;20028;-77
2021/03/01 04:40:57;;;;;;;61.43;25.30;;;;;;;2.96;98.31;103525.00;4971713;28;20025;-75
2021/03/01 04:43:24;;;;;;;60.70;26.13;;;;;;;2.97;97.99;103524.25;4964588;28;20021;-75
2021/03/01 04:45:52;;;;;;;63.17;25.53;;;;;;;2.96;97.88;103527.56;4962661;28;20018;-77
2021/03/01 04:48:19;;;;;;;67.43;27.70;;;;;;;2.95;97.37;103524.88;5000685;28;20032;-77
2021/03/01 04:50:50;;;;;;;58.50;24.03;;;;;;;2.94;97.31;103520.53;4975650;28;20025;-77
2021/03/01 04:53:17;;;;;;;54.10;24.57;;;;;;;2.90;97.23;103516.78;4990795;28;20048;-77
2021/03/01 04:55:44;;;;;;;60.93;25.73;;;;;;;2.92;96.82;103527.97;4988776;28;20028;-77
2021/03/01 04:58:11;;;;;;;58.57;24.47;;;;;;;2.96;96.78;103519.03;4988419;28;20025;-77
2021/03/01 05:00:37;;;;;;;66.73;27.63;;;;;;;2.98;96.96;103520.09;5004695;28;20187;-77
2021/03/01 05:03:04;;;;;;;68.03;29.00;;;;;;;3.06;96.88;103525.16;4990746;28;20550;-77
2021/03/01 05:05:30;;;;;;;61.43;25.30;;;;;;;3.01;97.03;103511.09;4967433;28;20017;-74
2021/03/01 05:07:58;;;;;;;57.55;24.33;;;;;;;3.00;96.89;103513.50;4983786;28;20275;-75
2021/03/01 05:10:25;;;;;;;56.77;23.90;;;;;;;3.05;96.62;103518.28;4982418;28;20024;-75
2021/03/01 05:12:52;;;;;;;61.60;25.47;;;;;;;3.05;96.84;103520.81;4967061;28;20021;-75
2021/03/01 05:15:17;;;;;;;;;;;;;;;2.98;96.28;103513.34;4999431;28;20558;-77
2021/03/01 05:17:43;;;;;;;66.77;26.13;;;;;;;2.92;96.19;103520.34;4997169;28;19913;-77
2021/03/01 05:20:08;;;;;;;69.07;27.00;;;;;;;2.93;96.42;103521.28;4990089;28;20342;-76
2021/03/01 05:22:34;;;;;;;64.95;25.90;;;;;;;3.00;96.53;103521.13;4975321;28;20326;-76
2021/03/01 05:24:59;;;;;;;60.70;25.30;;;;;;;2.98;96.48;103518.44;4992444;28;20211;-77
2021/03/01 05:27:25;;;;;;;64.88;27.30;;;;;;;2.92;96.57;103517.81;4984766;28;20052;-76
2021/03/01 05:29:50;;;;;;;68.32;27.15;;;;;;;2.97;95.85;103516.66;4977281;28;20520;-73
2021/03/01 05:32:16;;;;;;;67.35;26.65;;;;;;;2.92;96.27;103516.91;4973536;28;20282;-77
2021/03/01 05:34:41;;;;;;;58.97;25.25;;;;;;;2.92;96.17;103512.72;4958962;28;20332;-77
2021/03/01 05:37:07;;;;;;;66.72;26.35;;;;;;;2.87;95.62;103502.88;5011187;28;20243;-76
2021/03/01 05:39:32;;;;;;;65.63;26.15;;;;;;;2.95;96.10;103507.09;4988129;28;20021;-76
2021/03/01 05:41:58;;;;;;;61.15;26.02;;;;;;;2.96;96.49;103506.34;4996739;28;20300;-76
2021/03/01 05:44:25;;;;;;;62.47;26.85;;;;;;;3.01;96.54;103503.50;4999965;28;20024;-77
2021/03/01 05:46:54;;;;;;;68.53;27.40;;;;;;;3.00;96.99;103499.16;4985602;28;20020;-76
2021/03/01 05:49:21;;;;;;;68.07;26.97;;;;;;;2.93;96.91;103496.78;4977307;28;20148;-76
2021/03/01 05:51:51;;;;;;;66.23;27.13;;;;;;;2.94;96.85;103498.56;4978801;28;20016;-74
2021/03/01 05:54:20;;;;;;;67.53;26.37;;;;;;;2.96;96.46;103494.53;4983755;28;20016;-77
2021/03/01 05:56:49;;;;;;;74.27;28.50;;;;;;;2.95;97.19;103502.00;4980665;28;20021;-78
2021/03/01 05:59:19;;;;;;;78.43;29.77;;;;;;;2.90;96.99;103504.06;4980369;28;20072;-76
2021/03/01 06:01:45;;;;;;;80.77;28.83;;;;;;;2.90;97.17;103501.53;4987778;28;20032;-74
2021/03/01 06:04:11;;;;;;;75.77;28.50;;;;;;;2.93;97.32;103508.59;5020860;28;20021;-73
2021/03/01 06:06:38;;;;;;;74.53;29.10;;;;;;;2.93;97.27;103508.59;4971047;28;20501;-74
2021/03/01 06:09:04;;;;;;;75.63;29.30;;;;;;;2.89;96.90;103509.91;4977157;28;20032;-74
2021/03/01 06:11:29;;;;;;;78.93;30.40;;;;;;;2.93;96.63;103504.41;4989507;28;20025;-74
2021/03/01 06:13:55;;;;;;;69.47;26.95;;;;;;;2.94;96.87;103508.75;4963892;28;20322;-77
2021/03/01 06:16:20;;;;;;;67.15;28.20;;;;;;;2.87;96.49;103506.31;4965548;28;20340;-76
2021/03/01 06:18:46;;;;;;;71.43;28.95;;;;;;;2.88;97.11;103500.50;4975779;28;20195;-75
2021/03/01 06:21:14;;;;;;;79.68;29.15;;;;;;;2.88;97.11;103510.66;4980052;28;20101;-74
2021/03/01 06:23:41;;;;;;;77.73;29.03;;;;;;;2.86;96.80;103506.16;4975472;28;20056;-74
2021/03/01 06:26:33;;;;;;;77.27;28.13;;;;;;;2.84;96.96;103508.56;4979161;28;20025;-74
2021/03/01 06:29:04;;;;;;;74.93;28.80;;;;;;;2.86;96.93;103511.25;4965093;28;20059;-74
2021/03/01 06:31:47;;;;;;;82.20;28.70;;;;;;;2.86;97.32;103513.78;4982268;28;20139;-74
2021/03/01 06:34:22;;;;;;;81.27;29.60;;;;;;;2.83;97.48;103510.94;4972088;28;20589;-74
2021/03/01 06:37:07;;;;;;;96.07;31.53;;;;;;;2.81;97.49;103518.44;4967110;28;20029;-77
2021/03/01 06:39:40;;;;;;;84.47;29.97;;;;;;;2.86;97.59;103512.16;4962687;28;20020;-77
2021/03/01 06:42:18;;;;;;;90.53;34.30;;;;;;;2.85;97.79;103517.97;4963820;28;20037;-76
2021/03/01 06:44:45;;;;;;;77.70;30.93;;;;;;;2.86;97.56;103521.41;4965078;28;20051;-75
2021/03/01 06:47:10;;;;;;;88.13;31.93;;;;;;;2.85;97.53;103523.03;4969746;28;20035;-77
2021/03/01 06:49:38;;;;;;;87.40;30.95;;;;;;;2.77;97.67;103518.88;4960156;28;20360;-77
2021/03/01 06:52:04;;;;;;;89.67;30.60;;;;;;;2.80;97.59;103519.16;4990214;28;20032;-77
2021/03/01 06:54:29;;;;;;;82.60;29.75;;;;;;;2.75;97.51;103522.91;4986650;28;20490;-76
2021/03/01 06:56:55;;;;;;;100.03;35.42;;;;;;;2.71;97.60;103510.66;4985529;28;20296;-75
2021/03/01 06:59:21;;;;;;;89.88;32.08;;;;;;;2.70;97.60;103519.91;4955328;28;20022;-78
2021/03/01 07:01:54;;;;;;;78.07;27.33;;;;;;;2.67;98.05;103522.16;4962894;28;20379;-74
2021/03/01 07:04:31;;;;;;;98.57;32.13;;;;;;;2.70;98.23;103526.63;4970709;28;20019;-74
2021/03/01 07:07:01;;;;;;;106.72;33.45;;;;;;;2.69;97.96;103517.22;4967476;28;20012;-74
2021/03/01 07:09:32;;;;;;;91.83;30.17;;;;;;;2.75;98.04;103512.75;4957069;28;20095;-74
2021/03/01 07:11:58;;;;;;;99.13;31.10;;;;;;;2.71;98.35;103511.56;4972142;28;20036;-75
2021/03/01 07:14:28;;;;;;;99.65;31.27;;;;;;;2.75;98.31;103518.72;4984085;28;20097;-75
2021/03/01 07:16:58;;;;;;;101.17;33.83;;;;;;;2.83;98.05;103522.00;4988318;28;20128;-76
2021/03/01 07:19:32;;;;;;;91.97;31.93;;;;;;;2.82;97.80;103520.22;4967679;28;20025;-74
2021/03/01 07:22:03;;;;;;;102.17;33.53;;;;;;;2.90;98.25;103520.94;4989360;28;20052;-75
2021/03/01 07:24:31;;;;;;;93.20;29.60;;;;;;;2.83;97.91;103527.09;4963352;28;20087;-75
2021/03/01 07:26:59;;;;;;;86.07;31.80;;;;;;;2.77;97.73;103536.63;4980128;28;20123;-75
2021/03/01 07:29:30;;;;;;;94.10;31.33;;;;;;;2.74;97.43;103532.16;4983879;28;20056;-74
2021/03/01 07:32:01;;;;;;;88.53;29.63;;;;;;;2.77;97.17;103526.50;4999011;28;20032;-74
2021/03/01 07:34:26;;;;;;;88.20;30.27;;;;;;;2.76;97.17;103524.69;4977317;28;20032;-75
2021/03/01 07:36:58;;;;;;;82.65;29.45;;;;;;;2.79;97.39;103536.03;4972997;28;20064;-74
2021/03/01 07:39:24;;;;;;;81.90;30.77;;;;;;;2.80;97.16;103527.69;4955905;28;20025;-75
2021/03/01 07:41:51;;;;;;;84.70;30.17;;;;;;;2.86;97.09;103532.44;4970497;28;20027;-74
2021/03/01 07:44:23;;;;;;;93.00;34.33;;;;;;;2.81;97.17;103528.56;4988736;28;20016;-75
2021/03/01 07:46:49;;;;;;;78.57;29.00;;;;;;;2.71;97.26;103530.97;4976263;28;20099;-75
2021/03/01 07:49:36;;;;;;;83.87;29.63;;;;;;;2.67;97.39;103534.84;4952187;28;20048;-74
2021/03/01 07:52:02;;;;;;;79.30;28.60;;;;;;;2.61;97.62;103543.50;4965375;28;20025;-75
2021/03/01 07:54:56;;;;;;;98.13;33.17;;;;;;;2.62;97.74;103541.13;5000725;28;20297;-75
2021/03/01 07:57:27;;;;;;;98.57;32.60;;;;;;;2.66;98.15;103542.31;4985825;28;20021;-74
2021/03/01 07:59:53;;;;;;;91.77;30.50;;;;;;;2.62;97.67;103540.22;4971267;28;20064;-75
2021/03/01 08:02:28;;;;;;;98.38;32.38;;;;;;;2.67;98.02;103544.09;4968824;28;20033;-74
2021/03/01 08:04:57;;;;;;;76.50;27.63;;;;;;;2.59;97.84;103540.78;4981105;28;20029;-74
2021/03/01 08:07:43;;;;;;;84.70;32.33;;;;;;;2.60;97.83;103541.69;4992672;28;20055;-74
2021/03/01 08:10:39;;;;;;;75.78;25.25;;;;;;;2.65;97.88;103538.88;4957051;28;20040;-75
2021/03/01 08:13:05;;;;;;;84.40;30.70;;;;;;;2.62;97.88;103540.22;4980087;28;20110;-74
2021/03/01 08:15:53;;;;;;;85.97;30.83;;;;;;;2.66;98.14;103539.78;4991927;28;20454;-74
2021/03/01 08:18:18;;;;;;;;;;;;;;;2.67;98.15;103539.94;4992714;28;20040;-74
2021/03/01 08:20:53;;;;;;;88.90;30.77;;;;;;;2.68;98.27;103544.25;4992259;28;19951;-74
2021/03/01 08:23:20;;;;;;;101.87;33.77;;;;;;;2.72;98.14;103538.72;4992208;28;20089;-74
2021/03/01 08:25:48;;;;;;;91.53;32.87;;;;;;;2.76;97.99;103547.53;4993012;28;20237;-74
2021/03/01 08:28:19;;;;;;;95.43;33.40;;;;;;;2.77;97.89;103551.88;5010543;28;20025;-74
2021/03/01 08:30:49;;;;;;;93.40;32.53;;;;;;;2.74;97.90;103541.41;4991088;28;20639;-76
2021/03/01 08:33:15;;;;;;;90.43;32.67;;;;;;;2.76;97.77;103555.16;5000990;28;20182;-77
2021/03/01 08:35:50;;;;;;;83.15;30.83;;;;;;;2.77;98.09;103554.41;5010167;28;20508;-74
2021/03/01 08:38:37;;;;;;;78.10;29.53;;;;;;;2.73;97.93;103545.59;4991896;28;20367;-75
2021/03/01 08:41:02;;;;;;;75.68;27.10;;;;;;;2.83;97.69;103555.00;4991715;28;20025;-75
2021/03/01 08:43:34;;;;;;;69.13;28.05;;;;;;;2.83;97.65;103551.56;4990402;28;20037;-74
2021/03/01 08:45:59;;;;;;;77.93;31.17;;;;;;;2.86;97.27;103539.16;4981962;28;20257;-74
2021/03/01 08:48:25;;;;;;;84.80;30.92;;;;;;;2.97;97.34;103539.50;4953972;28;20538;-77
2021/03/01 08:50:52;;;;;;;72.45;29.35;;;;;;;2.94;97.26;103549.34;4956040;28;20048;-75
2021/03/01 08:53:25;;;;;;;77.07;29.23;;;;;;;2.93;97.12;103545.03;4956061;28;20215;-75
2021/03/01 08:55:51;;;;;;;75.27;31.23;;;;;;;2.92;96.99;103547.38;4973764;28;20203;-76
2021/03/01 08:58:18;;;;;;;77.80;30.23;;;;;;;2.98;97.21;103542.94;4974938;28;20029;-76
2021/03/01 09:01:00;;;;;;;74.77;30.67;;;;;;;2.99;97.03;103542.19;4973057;28;20025;-75
2021/03/01 09:03:33;;;;;;;74.47;31.13;;;;;;;3.07;97.21;103548.91;4954992;28;20454;-76
2021/03/01 09:06:11;;;;;;;75.03;29.83;;;;;;;3.10;97.19;103547.53;5010234;28;20198;-75
2021/03/01 09:08:42;;;;;;;72.30;30.00;;;;;;;3.15;96.11;103549.63;4995490;28;20036;-76
2021/03/01 09:11:29;;;;;;;66.40;27.90;;;;;;;3.18;96.29;103545.75;4996877;28;20539;-76
2021/03/01 09:14:02;;;;;;;74.63;29.57;;;;;;;3.25;96.36;103540.53;4995381;28;20419;-75
2021/03/01 09:16:30;;;;;;;73.00;31.00;;;;;;;3.26;96.15;103547.41;5009574;28;20167;-75
2021/03/01 09:19:10;;;;;;;76.90;30.07;;;;;;;3.25;96.30;103549.75;4963642;28;20032;-75
2021/03/01 09:21:40;;;;;;;74.87;31.47;;;;;;;3.29;96.50;103536.63;4987376;28;20574;-75
2021/03/01 09:24:07;;;;;;;76.40;30.57;;;;;;;3.25;96.28;103548.16;4994701;28;20507;-76
2021/03/01 09:26:34;;;;;;;69.57;30.07;;;;;;;3.24;96.29;103553.06;5003742;28;20047;-76
2021/03/01 09:29:07;;;;;;;76.37;30.93;;;;;;;3.36;96.30;103551.72;4989738;28;20040;-75
2021/03/01 09:31:47;;;;;;;83.30;31.23;;;;;;;3.40;96.51;103554.69;4993662;28;20127;-76
2021/03/01 09:34:15;;;;;;;74.57;28.87;;;;;;;3.36;95.75;103539.00;5010738;28;20194;-75
2021/03/01 09:36:47;;;;;;;77.83;32.93;;;;;;;3.36;96.14;103542.44;4984528;28;20025;-76
2021/03/01 09:39:16;;;;;;;72.30;29.13;;;;;;;3.35;96.15;103542.28;4990846;28;20788;-76
2021/03/01 09:41:42;;;;;;;74.77;30.50;;;;;;;3.32;96.04;103547.09;5019340;28;20029;-76
2021/03/01 09:44:08;;;;;;;80.90;30.60;;;;;;;3.28;95.53;103537.38;5020427;28;20446;-76
2021/03/01 09:46:34;;;;;;;79.20;31.42;;;;;;;3.24;95.96;103537.81;5019567;28;20954;-73
2021/03/01 09:49:07;;;;;;;82.70;33.23;;;;;;;3.27;96.16;103539.03;5019881;28;20132;-76
2021/03/01 09:51:35;;;;;;;77.83;30.47;;;;;;;3.33;95.60;103536.19;5001781;28;20460;-73
2021/03/01 09:54:08;;;;;;;73.40;30.13;;;;;;;3.33;95.39;103533.63;5003182;28;20025;-76
2021/03/01 09:56:44;;;;;;;80.00;32.13;;;;;;;3.41;95.66;103537.78;5019772;28;20025;-74
2021/03/01 09:59:10;;;;;;;67.55;27.85;;;;;;;3.28;94.89;103529.75;5003262;28;20076;-73
2021/03/01 10:01:35;;;;;;;69.93;29.63;;;;;;;3.30;95.64;103534.25;5019269;28;20112;-75
2021/03/01 10:04:01;;;;;;;62.93;25.27;;;;;;;3.18;95.36;103539.75;5003770;28;20025;-75
2021/03/01 10:06:36;;;;;;;58.65;26.05;;;;;;;3.41;95.54;103538.69;5020494;28;20825;-75
2021/03/01 10:09:07;;;;;;;60.13;27.57;;;;;;;3.28;94.80;103529.75;5003671;28;20025;-76
2021/03/01 10:11:33;;;;;;;55.13;25.23;;;;;;;3.20;94.72;103531.53;5019524;28;20037;-73
2021/03/01 10:14:05;;;;;;;54.63;24.10;;;;;;;3.16;94.17;103531.09;5042783;28;20032;-76
2021/03/01 10:16:36;;;;;;;53.90;24.40;;;;;;;3.26;93.94;103532.16;5060063;28;20098;-76
2021/03/01 10:19:17;;;;;;;54.63;22.80;;;;;;;3.13;93.02;103529.16;5042430;28;20047;-76
2021/03/01 10:21:43;;;;;;;46.80;22.90;;;;;;;3.19;93.99;103528.84;5050212;28;20041;-75
2021/03/01 10:24:09;;;;;;;;;;;;;;;3.19;93.43;103521.22;5043295;28;20197;-75
2021/03/01 10:26:55;;;;;;;57.42;24.23;;;;;;;3.20;94.11;103530.66;5042289;28;19912;-73
2021/03/01 10:29:40;;;;;;;55.97;23.23;;;;;;;3.15;93.85;103530.22;5060089;28;20040;-75
2021/03/01 10:32:16;;;;;;;52.60;23.00;;;;;;;3.07;93.94;103526.94;5041822;28;20025;-76
2021/03/01 10:34:42;;;;;;;53.05;24.67;;;;;;;2.93;94.13;103519.63;5041934;28;20029;-75
2021/03/01 10:37:12;;;;;;;58.00;24.38;;;;;;;3.09;94.09;103522.00;5024857;28;20449;-75
2021/03/01 10:39:39;;;;;;;54.83;23.53;;;;;;;3.09;93.76;103527.97;5019766;28;20029;-76
2021/03/01 10:42:14;;;;;;;54.17;23.17;;;;;;;3.07;93.59;103519.31;5002666;28;20029;-76
2021/03/01 10:44:47;;;;;;;64.07;25.43;;;;;;;2.91;94.53;103521.09;5019800;28;20124;-75
2021/03/01 10:47:21;;;;;;;57.17;25.70;;;;;;;3.03;94.43;103521.41;5002718;28;20033;-75
2021/03/01 10:49:51;;;;;;;69.90;26.87;;;;;;;3.10;94.62;103526.34;5019754;28;20029;-75
2021/03/01 10:52:17;;;;;;;71.90;28.00;;;;;;;3.13;94.52;103529.16;5002793;28;20121;-75
2021/03/01 10:54:43;;;;;;;70.15;26.60;;;;;;;3.25;94.48;103529.44;5002260;28;20487;-75
2021/03/01 10:57:09;;;;;;;76.18;29.45;;;;;;;3.23;94.77;103523.31;5019984;28;20033;-74
2021/03/01 10:59:35;;;;;;;69.25;26.80;;;;;;;3.16;94.32;103534.53;5024408;28;20033;-75
2021/03/01 11:02:01;;;;;;;64.50;27.58;;;;;;;3.17;94.32;103530.34;5041270;28;20105;-76
2021/03/01 11:04:27;;;;;;;69.10;27.45;;;;;;;3.31;94.44;103527.50;5040848;28;20056;-75
2021/03/01 11:06:52;;;;;;;85.40;30.65;;;;;;;3.34;94.75;103531.25;5057436;28;20178;-76
2021/03/01 11:09:19;;;;;;;64.32;26.60;;;;;;;3.31;93.93;103530.06;5039860;28;20479;-76
2021/03/01 11:11:46;;;;;;;64.13;26.83;;;;;;;3.33;93.83;103523.47;5038932;28;20766;-75
2021/03/01 11:14:12;;;;;;;54.07;23.20;;;;;;;3.36;93.61;103519.56;5039938;28;20134;-75
2021/03/01 11:16:38;;;;;;;56.17;23.60;;;;;;;3.22;93.08;103526.59;5039571;28;20020;-74
2021/03/01 11:19:04;;;;;;;52.53;23.60;;;;;;;3.38;92.70;103528.25;5040005;28;20502;-75
2021/03/01 11:21:30;;;;;;;58.37;24.53;;;;;;;3.48;92.43;103519.84;5040312;28;20024;-73